RYR67T EGPK-EGPK
Flight info
| Callsign | RYR67T |
|---|---|
| Flight time | N/A |
| Altitude | 7000 |
| Route | 5535N00448W 5531N00453W DCT 5520N00422W DCT 5524N00417W |
| Aircraft | B38M/M-SDE1FGHILORVWXY/HB1 |
Departure
| Time | 2026-05-04 12:20 |
|---|---|
| Airport | Glasgow Prestwick Airport (EGPK) |
Arrival
| Time | N/A |
|---|---|
| Airport | Glasgow Prestwick Airport (EGPK) |
| Time | Latitude | Longitude | Altitude | Speed | Heading |
|---|---|---|---|---|---|
| 2026-05-04 12:05 | 55.51100 | -4.60947 | 47 ft | 0 kts | 121° |
| 2026-05-04 12:14 | 55.51128 | -4.61090 | 45 ft | 4 kts | 61° |
| 2026-05-04 12:15 | 55.51122 | -4.61106 | 43 ft | 0 kts | 53° |
| 2026-05-04 12:16 | 55.51186 | -4.60953 | 49 ft | 32 kts | 54° |
| 2026-05-04 12:17 | 55.51188 | -4.60753 | 49 ft | 27 kts | 124° |
| 2026-05-04 12:17 | 55.51138 | -4.60615 | 48 ft | 47 kts | 121° |
| 2026-05-04 12:17 | 55.50655 | -4.59211 | 56 ft | 3 kts | 121° |
| 2026-05-04 12:18 | 55.50532 | -4.58817 | 58 ft | 63 kts | 114° |
| 2026-05-04 12:18 | 55.50288 | -4.58092 | 69 ft | 58 kts | 121° |
| 2026-05-04 12:18 | 55.50187 | -4.57757 | 70 ft | 8 kts | 92° |
| 2026-05-04 12:18 | 55.50239 | -4.57648 | 69 ft | 22 kts | 26° |
| 2026-05-04 12:19 | 55.50252 | -4.57642 | 66 ft | 1 kts | 0° |
| 2026-05-04 12:19 | 55.50300 | -4.57634 | 72 ft | 3 kts | 339° |
| 2026-05-04 12:19 | 55.50314 | -4.57658 | 65 ft | 1 kts | 300° |
| 2026-05-04 12:19 | 55.50400 | -4.57895 | 71 ft | 53 kts | 301° |
| 2026-05-04 12:20 | 55.50686 | -4.58725 | 66 ft | 104 kts | 301° |
| 2026-05-04 12:20 | 55.51129 | -4.59998 | 51 ft | 140 kts | 302° |
| 2026-05-04 12:20 | 55.51626 | -4.61471 | 396 ft | 139 kts | 300° |
| 2026-05-04 12:20 | 55.52162 | -4.62970 | 757 ft | 149 kts | 302° |
| 2026-05-04 12:21 | 55.52762 | -4.64638 | 1013 ft | 171 kts | 302° |
| 2026-05-04 12:21 | 55.53453 | -4.66533 | 1205 ft | 199 kts | 302° |
| 2026-05-04 12:21 | 55.54201 | -4.68618 | 1910 ft | 202 kts | 302° |
| 2026-05-04 12:21 | 55.54964 | -4.70771 | 2696 ft | 211 kts | 298° |
| 2026-05-04 12:22 | 55.55320 | -4.73251 | 2786 ft | 210 kts | 266° |
| 2026-05-04 12:22 | 55.54800 | -4.75699 | 2866 ft | 222 kts | 233° |